Time;durP1;ratioP1;P1;durP2;ratioP2;P2;SDS_P1;SDS_P2;PMS_P1;PMS_P2;Temp;Humidity;BMP_temperature;BMP_pressure;BME280_temperature;BME280_humidity;BME280_pressure;Samples;Min_cycle;Max_cycle;Signal;HPM_P1;HPM_P2
2023/06/06 00:01:25;;;;;;;8.10;4.28;;;11.30;99.90;;;;;;5085290;28;20059;-73
2023/06/06 00:03:52;;;;;;;8.30;3.70;;;11.30;99.90;;;;;;5071028;28;20076;-74
2023/06/06 00:06:24;;;;;;;7.60;4.13;;;11.30;99.90;;;;;;5069887;28;20100;-73
2023/06/06 00:08:52;;;;;;;12.02;4.65;;;11.30;99.90;;;;;;5071510;28;20070;-73
2023/06/06 00:11:26;;;;;;;9.65;4.07;;;11.20;99.90;;;;;;5069789;28;20051;-74
2023/06/06 00:13:53;;;;;;;10.85;4.30;;;11.20;99.90;;;;;;5085810;28;20036;-73
2023/06/06 00:16:18;;;;;;;9.38;4.38;;;11.20;99.90;;;;;;5054147;28;20047;-74
2023/06/06 00:18:50;;;;;;;9.30;4.05;;;11.20;99.90;;;;;;5070092;28;20058;-75
2023/06/06 00:21:22;;;;;;;11.88;3.70;;;11.20;99.90;;;;;;5065422;28;20394;-74
2023/06/06 00:24:01;;;;;;;7.95;3.90;;;11.20;99.90;;;;;;5064402;28;20139;-73
2023/06/06 00:26:29;;;;;;;13.68;4.10;;;11.20;99.90;;;;;;5085029;28;20087;-73
2023/06/06 00:28:55;;;;;;;7.18;3.92;;;11.20;99.90;;;;;;5087196;28;20060;-74
2023/06/06 00:31:22;;;;;;;8.98;4.30;;;11.20;99.90;;;;;;5068901;28;20048;-73
2023/06/06 00:33:48;;;;;;;10.65;4.07;;;12.70;99.90;;;;;;5062392;28;20083;-73
2023/06/06 00:36:15;;;;;;;11.57;4.95;;;11.20;99.90;;;;;;5087104;28;20826;-73
2023/06/06 00:38:41;;;;;;;9.10;4.47;;;11.20;99.90;;;;;;5053533;28;20055;-74
2023/06/06 00:41:07;;;;;;;7.38;4.18;;;11.20;99.90;;;;;;5051945;28;20055;-74
2023/06/06 00:43:34;;;;;;;11.27;4.72;;;11.20;99.90;;;;;;5085928;28;20131;-73
2023/06/06 00:46:00;;;;;;;10.13;4.43;;;11.20;99.90;;;;;;5069904;28;20105;-74
2023/06/06 00:48:26;;;;;;;10.82;4.80;;;11.10;99.90;;;;;;5069821;28;20445;-74
2023/06/06 00:50:54;;;;;;;9.70;4.40;;;11.20;99.90;;;;;;5086639;28;20384;-73
2023/06/06 00:53:20;;;;;;;10.57;4.30;;;11.10;99.90;;;;;;5103625;28;20097;-73
2023/06/06 00:55:47;;;;;;;11.00;4.40;;;11.10;99.90;;;;;;5053140;28;20044;-73
2023/06/06 00:58:20;;;;;;;9.35;4.60;;;11.10;99.90;;;;;;5071283;28;20105;-73
2023/06/06 01:00:49;;;;;;;11.52;5.00;;;11.10;99.90;;;;;;5068722;28;20056;-72
2023/06/06 01:03:24;;;;;;;8.98;4.65;;;11.10;99.90;;;;;;5069057;28;20128;-73
2023/06/06 01:05:56;;;;;;;7.68;4.75;;;11.10;99.90;;;;;;5071295;28;20151;-73
2023/06/06 01:08:23;;;;;;;11.68;4.60;;;11.10;99.90;;;;;;5086972;28;20079;-73
2023/06/06 01:10:51;;;;;;;9.45;4.45;;;11.10;99.90;;;;;;5069643;28;20056;-73
2023/06/06 01:13:50;;;;;;;12.70;4.88;;;11.10;99.90;;;;;;5086058;28;20135;-73
2023/06/06 01:16:19;;;;;;;8.20;4.82;;;11.10;99.90;;;;;;5079589;28;20052;-73
2023/06/06 01:18:48;;;;;;;10.02;4.55;;;11.10;99.90;;;;;;5086361;28;20052;-72
2023/06/06 01:21:16;;;;;;;11.07;4.82;;;11.10;99.90;;;;;;5082978;28;20056;-73
2023/06/06 01:23:50;;;;;;;13.30;5.47;;;11.10;99.90;;;;;;5085311;28;20067;-74
2023/06/06 01:26:17;;;;;;;8.20;4.50;;;11.10;99.90;;;;;;5088310;28;20494;-74
2023/06/06 01:28:48;;;;;;;9.02;4.38;;;11.10;99.90;;;;;;5086452;28;20119;-73
2023/06/06 01:31:28;;;;;;;12.20;4.80;;;11.10;99.90;;;;;;5085715;28;20257;-74
2023/06/06 01:34:06;;;;;;;8.85;4.90;;;11.10;99.90;;;;;;5083871;28;20056;-73
2023/06/06 01:36:51;;;;;;;11.13;4.68;;;11.10;99.90;;;;;;5087892;28;20044;-74
2023/06/06 01:39:22;;;;;;;7.20;4.18;;;11.10;99.90;;;;;;5086354;28;20063;-74
2023/06/06 01:41:54;;;;;;;8.60;3.95;;;10.80;99.90;;;;;;5052175;28;20052;-73
2023/06/06 01:44:22;;;;;;;10.68;4.65;;;11.00;99.90;;;;;;5086129;28;20560;-73
2023/06/06 01:46:50;;;;;;;9.27;4.55;;;11.10;99.90;;;;;;5065789;28;20059;-74
2023/06/06 01:49:21;;;;;;;7.38;4.03;;;11.10;99.90;;;;;;5073529;28;20037;-73
2023/06/06 01:51:51;;;;;;;9.77;4.43;;;11.20;99.90;;;;;;5088263;28;20052;-73
2023/06/06 01:54:35;;;;;;;10.23;4.70;;;11.20;99.90;;;;;;5068962;28;20241;-74
2023/06/06 01:57:01;;;;;;;7.07;4.22;;;11.20;99.90;;;;;;5072838;28;20048;-74
2023/06/06 01:59:27;;;;;;;7.38;3.83;;;11.20;99.90;;;;;;5047782;28;20061;-74
2023/06/06 02:01:57;;;;;;;8.90;4.40;;;11.20;99.90;;;;;;5023743;28;20056;-73
2023/06/06 02:04:24;;;;;;;10.98;4.70;;;11.30;99.90;;;;;;5028328;28;20060;-74
2023/06/06 02:07:00;;;;;;;10.45;4.60;;;11.30;99.90;;;;;;5030729;28;20099;-73
2023/06/06 02:09:38;;;;;;;7.68;4.57;;;11.30;99.90;;;;;;5000993;28;20101;-74
2023/06/06 02:12:19;;;;;;;9.77;5.43;;;11.40;99.90;;;;;;5030700;28;20048;-73
2023/06/06 02:14:45;;;;;;;10.52;5.72;;;11.40;99.90;;;;;;5006069;28;20048;-74
2023/06/06 02:17:11;;;;;;;9.13;4.82;;;11.40;99.90;;;;;;5014653;28;20119;-74
2023/06/06 02:19:37;;;;;;;10.85;5.95;;;11.40;99.90;;;;;;5014644;28;20069;-74
2023/06/06 02:22:03;;;;;;;12.18;5.80;;;11.50;99.90;;;;;;4997809;28;20041;-74
2023/06/06 02:24:33;;;;;;;10.48;5.70;;;11.50;99.90;;;;;;5038404;28;20053;-74
2023/06/06 02:26:59;;;;;;;15.18;6.50;;;11.50;99.90;;;;;;5028036;28;20148;-73
2023/06/06 02:29:24;;;;;;;11.90;5.93;;;11.50;99.90;;;;;;5033538;28;20500;-74
2023/06/06 02:31:51;;;;;;;11.57;6.15;;;11.50;99.90;;;;;;5072044;28;20067;-74
2023/06/06 02:34:18;;;;;;;11.15;6.65;;;11.50;99.90;;;;;;5072773;28;20133;-73
2023/06/06 02:36:53;;;;;;;11.25;6.07;;;11.60;99.90;;;;;;5072424;28;20063;-75
2023/06/06 02:39:20;;;;;;;11.65;5.97;;;11.60;99.90;;;;;;5103938;28;20035;-74
2023/06/06 02:41:54;;;;;;;10.18;6.18;;;11.50;99.90;;;;;;5071140;28;20112;-75
2023/06/06 02:44:19;;;;;;;8.23;5.70;;;11.60;99.90;;;;;;5049345;28;20060;-74
2023/06/06 02:46:46;;;;;;;13.05;5.68;;;11.50;99.90;;;;;;5065195;28;20728;-74
2023/06/06 02:49:12;;;;;;;11.82;6.80;;;11.60;99.90;;;;;;5037896;28;20102;-74
2023/06/06 02:51:41;;;;;;;9.65;5.50;;;11.60;99.90;;;;;;5063617;28;20054;-74
2023/06/06 02:54:07;;;;;;;10.45;5.68;;;11.60;99.90;;;;;;5088218;28;20582;-74
2023/06/06 02:56:33;;;;;;;9.00;5.28;;;11.60;99.90;;;;;;5071665;28;20173;-73
2023/06/06 02:59:02;;;;;;;7.88;5.00;;;11.60;99.90;;;;;;5080995;28;20350;-74
2023/06/06 03:01:30;;;;;;;10.93;5.82;;;11.60;99.90;;;;;;5063039;28;20052;-74
2023/06/06 03:03:58;;;;;;;12.00;5.53;;;11.60;99.90;;;;;;5085252;28;20116;-74
2023/06/06 03:06:29;;;;;;;8.30;5.80;;;11.60;99.90;;;;;;5070959;28;20189;-74
2023/06/06 03:08:57;;;;;;;10.10;5.95;;;11.60;99.90;;;;;;5072238;28;20048;-74
2023/06/06 03:11:34;;;;;;;11.05;6.00;;;11.60;99.90;;;;;;5087425;28;20113;-74
2023/06/06 03:14:07;;;;;;;12.23;6.45;;;11.70;99.90;;;;;;5089559;28;20155;-74
2023/06/06 03:16:34;;;;;;;11.98;5.90;;;11.60;99.90;;;;;;5086718;28;20047;-74
2023/06/06 03:19:00;;;;;;;15.63;6.70;;;11.60;99.90;;;;;;5103122;28;20060;-75
2023/06/06 03:21:33;;;;;;;12.82;6.70;;;11.60;99.90;;;;;;5087931;28;20056;-74
2023/06/06 03:24:01;;;;;;;13.05;6.65;;;11.60;99.90;;;;;;5096482;28;20051;-74
2023/06/06 03:26:27;;;;;;;11.00;6.03;;;11.40;99.90;;;;;;5055015;28;20126;-74
2023/06/06 03:28:53;;;;;;;13.70;6.20;;;11.70;99.90;;;;;;5071174;28;20513;-74
2023/06/06 03:31:23;;;;;;;12.52;6.30;;;11.70;99.90;;;;;;5085636;28;20148;-74
2023/06/06 03:33:52;;;;;;;11.65;6.15;;;11.70;99.90;;;;;;5072094;28;20040;-74
2023/06/06 03:36:22;;;;;;;11.70;6.05;;;11.70;99.90;;;;;;5088293;28;20109;-74
2023/06/06 03:38:48;;;;;;;10.00;5.72;;;11.80;99.90;;;;;;5055020;28;20044;-74
2023/06/06 03:41:14;;;;;;;9.68;5.78;;;11.80;99.90;;;;;;5052540;28;20039;-74
2023/06/06 03:43:44;;;;;;;12.45;5.85;;;11.80;99.90;;;;;;5055040;28;20056;-73
2023/06/06 03:46:12;;;;;;;10.00;5.50;;;11.80;99.90;;;;;;5089158;28;20056;-74
2023/06/06 03:48:40;;;;;;;9.32;5.45;;;11.90;99.90;;;;;;5089110;28;20072;-74
2023/06/06 03:51:17;;;;;;;11.18;6.00;;;11.90;99.90;;;;;;5071459;28;20062;-74
2023/06/06 03:53:58;;;;;;;13.32;5.88;;;11.90;99.90;;;;;;5033701;28;20413;-73
2023/06/06 03:56:29;;;;;;;14.70;5.72;;;11.90;99.90;;;;;;5028549;28;20148;-73
2023/06/06 03:58:56;;;;;;;10.90;5.63;;;11.90;99.90;;;;;;5018068;28;20053;-74
2023/06/06 04:01:24;;;;;;;9.27;5.13;;;12.00;99.90;;;;;;5064818;28;20124;-73
2023/06/06 04:03:56;;;;;;;10.68;5.30;;;12.00;99.90;;;;;;5016706;28;20139;-73
2023/06/06 04:06:25;;;;;;;13.27;4.78;;;11.90;99.90;;;;;;5016663;28;20087;-73
2023/06/06 04:08:56;;;;;;;14.05;4.47;;;12.00;99.90;;;;;;5035323;28;20057;-75
2023/06/06 04:11:25;;;;;;;12.38;5.75;;;12.00;99.90;;;;;;5049544;28;20063;-73
2023/06/06 04:13:52;;;;;;;14.25;4.55;;;12.00;99.90;;;;;;5048862;28;20053;-73
2023/06/06 04:16:24;;;;;;;8.45;4.28;;;12.10;99.90;;;;;;5017488;28;20579;-73
2023/06/06 04:18:52;;;;;;;9.63;4.45;;;12.10;99.90;;;;;;5049874;28;20049;-73
2023/06/06 04:21:40;;;;;;;10.48;4.00;;;12.10;99.90;;;;;;5047714;28;20137;-73
2023/06/06 04:24:06;;;;;;;12.23;4.30;;;12.10;99.90;;;;;;5022829;28;20056;-74
2023/06/06 04:26:36;;;;;;;9.13;3.90;;;12.20;99.90;;;;;;5048365;28;20060;-73
2023/06/06 04:29:02;;;;;;;9.07;4.03;;;12.20;99.90;;;;;;5017138;28;20061;-72
2023/06/06 04:31:40;;;;;;;10.68;4.30;;;12.20;99.90;;;;;;5019460;28;20539;-73
2023/06/06 04:34:09;;;;;;;7.10;3.90;;;12.20;99.90;;;;;;5054106;28;20124;-72
2023/06/06 04:36:51;;;;;;;11.48;4.43;;;12.20;99.90;;;;;;5049750;28;20133;-74
2023/06/06 04:39:24;;;;;;;10.45;4.10;;;12.20;99.90;;;;;;5035513;28;20076;-73
2023/06/06 04:41:50;;;;;;;11.07;4.53;;;12.30;99.90;;;;;;5034298;28;20041;-73
2023/06/06 04:44:20;;;;;;;8.68;4.68;;;12.30;99.90;;;;;;5033027;28;20056;-73
2023/06/06 04:46:47;;;;;;;9.38;4.38;;;12.30;99.90;;;;;;5066642;28;20467;-72
2023/06/06 04:49:13;;;;;;;9.30;3.58;;;12.30;99.90;;;;;;5050241;28;20053;-74
2023/06/06 04:51:46;;;;;;;9.40;4.13;;;12.30;99.90;;;;;;5048595;28;20056;-73
2023/06/06 04:54:13;;;;;;;8.70;4.00;;;12.40;99.90;;;;;;5050245;28;20128;-73
2023/06/06 04:56:51;;;;;;;9.65;3.92;;;12.30;99.90;;;;;;5033237;28;20099;-73
2023/06/06 04:59:22;;;;;;;7.25;3.83;;;12.30;99.90;;;;;;5047742;28;20068;-72
2023/06/06 05:01:51;;;;;;;7.32;3.85;;;12.40;99.90;;;;;;5031902;28;20056;-73
2023/06/06 05:04:37;;;;;;;8.40;3.88;;;12.40;99.90;;;;;;5037150;28;20040;-73
2023/06/06 05:07:08;;;;;;;9.35;4.47;;;12.40;99.90;;;;;;5020385;28;20551;-73
2023/06/06 05:09:35;;;;;;;10.52;3.70;;;12.40;99.90;;;;;;5003573;28;20048;-74
2023/06/06 05:12:02;;;;;;;7.97;4.13;;;12.50;99.90;;;;;;4986977;28;20176;-73
2023/06/06 05:14:34;;;;;;;8.38;3.63;;;12.00;99.90;;;;;;5049319;28;20131;-73
2023/06/06 05:17:20;;;;;;;10.50;4.32;;;12.60;99.90;;;;;;5032459;28;20041;-73
2023/06/06 05:19:56;;;;;;;8.07;4.10;;;12.70;99.90;;;;;;5037302;28;20131;-73
2023/06/06 05:22:27;;;;;;;9.52;4.18;;;12.80;99.90;;;;;;5035284;28;20058;-75
2023/06/06 05:25:05;;;;;;;10.02;4.00;;;12.80;99.90;;;;;;4988643;28;20133;-75
2023/06/06 05:27:34;;;;;;;8.05;3.85;;;12.90;99.90;;;;;;5004689;28;20508;-74
2023/06/06 05:30:10;;;;;;;9.38;4.70;;;12.40;99.90;;;;;;5019041;28;20081;-74
2023/06/06 05:32:40;;;;;;;6.63;3.45;;;13.10;99.90;;;;;;5015985;28;20104;-73
2023/06/06 05:35:09;;;;;;;9.00;4.47;;;13.20;99.90;;;;;;5002825;28;20480;-74
2023/06/06 05:37:42;;;;;;;7.93;3.33;;;13.10;99.90;;;;;;5020513;28;20076;-73
2023/06/06 05:40:16;;;;;;;5.50;3.20;;;13.30;99.90;;;;;;5018505;28;20065;-74
2023/06/06 05:42:54;;;;;;;6.70;3.30;;;13.40;99.90;;;;;;5016901;28;20137;-74
2023/06/06 05:45:27;;;;;;;8.25;3.55;;;13.40;99.90;;;;;;4999701;28;20050;-74
2023/06/06 05:48:06;;;;;;;11.80;3.50;;;13.60;99.90;;;;;;5052151;28;20076;-74
2023/06/06 05:50:33;;;;;;;7.15;2.80;;;13.60;99.90;;;;;;5017821;28;21049;-74
2023/06/06 05:53:05;;;;;;;4.53;2.42;;;13.80;99.90;;;;;;5035322;28;20092;-74
2023/06/06 05:55:35;;;;;;;4.78;2.75;;;13.80;99.90;;;;;;5011233;28;20058;-76
2023/06/06 05:58:04;;;;;;;7.47;2.95;;;13.90;99.90;;;;;;5002784;28;20065;-75
2023/06/06 06:00:36;;;;;;;6.45;2.63;;;14.00;99.90;;;;;;5017510;28;20054;-74
2023/06/06 06:03:16;;;;;;;7.22;2.72;;;14.00;99.90;;;;;;5018408;28;20173;-73
2023/06/06 06:05:49;;;;;;;5.63;2.63;;;14.10;99.90;;;;;;5033306;28;20087;-73
2023/06/06 06:08:21;;;;;;;7.72;2.88;;;14.60;99.90;;;;;;5016209;28;20069;-73
2023/06/06 06:11:00;;;;;;;6.00;2.65;;;14.30;99.90;;;;;;5048649;28;20103;-74
2023/06/06 06:13:28;;;;;;;5.57;3.03;;;14.40;99.90;;;;;;5020994;28;20057;-74
2023/06/06 06:15:54;;;;;;;8.48;2.67;;;14.50;99.90;;;;;;5016290;28;20125;-76
2023/06/06 06:18:26;;;;;;;5.10;2.70;;;14.60;99.90;;;;;;5029340;28;20053;-74
2023/06/06 06:21:05;;;;;;;5.78;2.80;;;14.70;99.90;;;;;;5017389;28;20516;-74
2023/06/06 06:23:37;;;;;;;6.35;2.83;;;14.30;99.90;;;;;;5038834;28;20060;-73
2023/06/06 06:26:09;;;;;;;6.85;3.05;;;14.80;99.90;;;;;;4985144;28;20054;-74
2023/06/06 06:28:46;;;;;;;4.72;2.75;;;14.70;99.90;;;;;;5018672;28;20060;-74
2023/06/06 06:31:16;;;;;;;7.80;3.13;;;14.70;99.90;;;;;;5031761;28;20053;-74
2023/06/06 06:33:45;;;;;;;6.35;3.08;;;14.80;99.90;;;;;;5015678;28;20048;-74
2023/06/06 06:36:28;;;;;;;5.50;2.50;;;14.90;99.90;;;;;;5030079;28;20507;-73
2023/06/06 06:39:00;;;;;;;9.50;3.13;;;15.10;99.90;;;;;;4996408;28;20089;-74
2023/06/06 06:41:27;;;;;;;5.22;2.80;;;15.20;99.90;;;;;;4979524;28;20058;-73
2023/06/06 06:43:54;;;;;;;8.30;2.75;;;15.40;99.90;;;;;;4962875;28;20057;-73
2023/06/06 06:46:23;;;;;;;5.78;2.97;;;15.50;99.90;;;;;;5012729;28;20057;-74
2023/06/06 06:48:58;;;;;;;5.03;2.67;;;15.60;99.90;;;;;;4972550;28;20065;-74
2023/06/06 06:51:35;;;;;;;5.40;2.80;;;15.80;99.90;;;;;;4976983;28;20050;-75
2023/06/06 06:54:22;;;;;;;7.05;2.83;;;15.90;99.90;;;;;;4943894;28;20065;-74
2023/06/06 06:56:53;;;;;;;8.00;2.58;;;16.10;99.90;;;;;;4949010;28;20059;-74
2023/06/06 06:59:28;;;;;;;7.68;2.70;;;16.20;99.90;;;;;;4956523;28;20082;-74
2023/06/06 07:01:57;;;;;;;5.35;2.60;;;16.30;99.90;;;;;;4926027;28;20066;-77
2023/06/06 07:04:41;;;;;;;8.35;3.00;;;16.40;99.90;;;;;;4924779;28;20577;-74
2023/06/06 07:07:25;;;;;;;5.90;2.85;;;16.60;99.90;;;;;;4957698;28;20101;-75
2023/06/06 07:10:05;;;;;;;8.18;2.95;;;16.70;99.90;;;;;;4977659;28;20063;-74
2023/06/06 07:12:36;;;;;;;7.68;3.28;;;16.90;99.90;;;;;;4964491;28;20054;-73
2023/06/06 07:15:15;;;;;;;7.85;3.03;;;17.00;99.90;;;;;;4980316;28;20060;-74
2023/06/06 07:17:58;;;;;;;6.43;2.97;;;17.20;99.90;;;;;;4956700;28;20066;-74
2023/06/06 07:20:27;;;;;;;4.85;2.47;;;17.20;99.90;;;;;;4939873;28;20055;-73
2023/06/06 07:23:02;;;;;;;6.22;2.97;;;17.10;99.90;;;;;;4939093;28;20395;-74
2023/06/06 07:25:39;;;;;;;5.57;2.40;;;17.10;99.90;;;;;;4980739;28;20208;-74
2023/06/06 07:28:19;;;;;;;6.43;2.70;;;17.10;99.90;;;;;;4946493;28;20164;-73
2023/06/06 07:30:52;;;;;;;6.63;2.83;;;17.20;99.90;;;;;;4949789;28;20058;-74
2023/06/06 07:33:24;;;;;;;5.75;2.80;;;18.00;99.90;;;;;;4962990;28;20509;-74
2023/06/06 07:36:10;;;;;;;6.88;3.00;;;17.60;99.90;;;;;;4993807;28;20062;-74
2023/06/06 07:38:57;;;;;;;4.78;2.83;;;17.80;99.90;;;;;;4980258;28;20077;-74
2023/06/06 07:41:29;;;;;;;4.68;2.40;;;18.10;99.90;;;;;;4962464;28;20073;-74
2023/06/06 07:43:58;;;;;;;5.72;2.58;;;18.40;99.90;;;;;;5010778;28;20060;-73
2023/06/06 07:46:28;;;;;;;6.47;2.75;;;18.50;99.90;;;;;;4993078;28;20066;-74
2023/06/06 07:48:55;;;;;;;8.18;2.70;;;18.70;99.90;;;;;;4978592;28;20064;-75
2023/06/06 07:51:33;;;;;;;7.40;2.65;;;18.90;99.90;;;;;;4985788;28;20248;-73
2023/06/06 07:54:05;;;;;;;7.72;2.92;;;19.00;99.90;;;;;;5016025;28;20087;-73
2023/06/06 07:56:43;;;;;;;7.40;2.75;;;19.20;99.90;;;;;;5015149;28;20065;-74
2023/06/06 07:59:14;;;;;;;7.13;2.80;;;19.30;99.90;;;;;;4984451;28;20393;-74
2023/06/06 08:02:01;;;;;;;8.30;3.50;;;19.50;99.90;;;;;;5014540;28;20053;-74
2023/06/06 08:04:28;;;;;;;6.88;2.88;;;19.70;99.90;;;;;;5017387;28;20675;-74
2023/06/06 08:06:55;;;;;;;7.38;3.40;;;19.90;99.90;;;;;;5049177;28;20085;-74
2023/06/06 08:09:33;;;;;;;6.43;3.15;;;20.00;99.90;;;;;;5032489;28;20132;-75
2023/06/06 08:12:16;;;;;;;5.20;3.05;;;20.10;99.90;;;;;;4982002;28;20075;-75
2023/06/06 08:14:52;;;;;;;6.65;3.13;;;20.00;99.90;;;;;;5046557;28;20054;-76
2023/06/06 08:17:20;;;;;;;7.13;2.92;;;20.20;99.90;;;;;;5016523;28;20443;-75
2023/06/06 08:19:47;;;;;;;5.00;2.70;;;20.30;99.90;;;;;;4983564;28;20408;-75
2023/06/06 08:22:33;;;;;;;7.55;3.33;;;20.20;99.90;;;;;;5030430;28;20045;-74
2023/06/06 08:25:12;;;;;;;6.50;2.72;;;20.30;99.90;;;;;;5019178;28;20065;-75
2023/06/06 08:28:03;;;;;;;7.88;3.10;;;20.30;99.90;;;;;;4972815;28;20061;-74
2023/06/06 08:30:37;;;;;;;5.43;3.05;;;20.50;99.90;;;;;;5026567;28;20439;-74
2023/06/06 08:33:13;;;;;;;8.60;3.22;;;20.70;99.90;;;;;;4945349;28;20057;-75
2023/06/06 08:35:50;;;;;;;7.07;3.22;;;21.00;99.90;;;;;;4965580;28;20117;-75
2023/06/06 08:41:14;;;;;;;6.28;3.03;;;21.50;99.90;;;;;;4969257;28;20070;-75
2023/06/06 08:43:46;;;;;;;4.70;3.00;;;21.80;99.90;;;;;;4937047;28;20588;-75
2023/06/06 08:46:15;;;;;;;6.07;2.97;;;21.70;99.90;;;;;;4953123;28;20067;-75
2023/06/06 08:48:55;;;;;;;9.32;3.40;;;21.50;99.90;;;;;;4968490;28;20593;-76
2023/06/06 08:51:28;;;;;;;7.53;3.25;;;21.30;99.90;;;;;;4952928;28;20106;-74
2023/06/06 08:54:15;;;;;;;7.07;3.63;;;21.00;99.90;;;;;;4968085;28;20187;-74
2023/06/06 08:56:45;;;;;;;6.97;3.10;;;21.00;99.90;;;;;;4952529;28;20058;-75
2023/06/06 08:59:28;;;;;;;4.80;2.97;;;20.90;99.90;;;;;;4936916;28;20070;-75
2023/06/06 09:01:56;;;;;;;7.45;3.47;;;21.00;99.90;;;;;;4936650;28;20069;-74
2023/06/06 09:04:23;;;;;;;5.22;2.80;;;21.10;99.90;;;;;;4983152;28;20101;-75
2023/06/06 09:06:56;;;;;;;7.65;2.95;;;21.20;99.80;;;;;;5049296;28;20184;-75
2023/06/06 09:09:45;;;;;;;6.37;3.00;;;21.30;99.40;;;;;;5042483;28;20061;-75
2023/06/06 09:12:18;;;;;;;7.13;2.83;;;21.50;99.40;;;;;;5002048;28;20354;-75
2023/06/06 09:14:44;;;;;;;5.88;2.70;;;21.60;98.90;;;;;;5015669;28;20216;-75
2023/06/06 09:17:17;;;;;;;8.90;3.35;;;21.70;98.60;;;;;;5002295;28;20580;-74
2023/06/06 09:19:59;;;;;;;5.20;2.78;;;21.90;98.40;;;;;;5032136;28;20637;-75
2023/06/06 09:22:41;;;;;;;6.72;2.90;;;22.00;98.20;;;;;;4979324;28;20097;-75
2023/06/06 09:25:37;;;;;;;6.38;2.75;;;22.20;97.80;;;;;;4968155;28;20093;-75
2023/06/06 09:28:09;;;;;;;6.82;2.83;;;22.30;97.00;;;;;;4962142;28;20058;-74
2023/06/06 09:30:48;;;;;;;5.50;3.20;;;22.40;97.00;;;;;;4943778;28;20465;-75
2023/06/06 09:33:24;;;;;;;6.07;2.85;;;22.40;97.20;;;;;;4958997;28;20062;-75
2023/06/06 09:36:05;;;;;;;7.40;3.35;;;22.50;96.90;;;;;;4932719;28;20561;-75
2023/06/06 09:39:16;;;;;;;3.83;2.60;;;22.60;95.70;;;;;;4958572;28;21065;-75
2023/06/06 09:41:45;;;;;;;5.18;3.15;;;22.60;96.30;;;;;;4941940;28;20055;-75
2023/06/06 09:44:40;;;;;;;9.50;3.28;;;22.80;96.20;;;;;;4959321;28;20149;-75
2023/06/06 09:47:08;;;;;;;6.75;2.90;;;22.70;95.30;;;;;;4942441;28;20062;-74
2023/06/06 09:50:05;;;;;;;6.40;3.05;;;22.80;95.80;;;;;;4948372;28;20058;-75
2023/06/06 09:52:53;;;;;;;5.25;3.33;;;23.00;94.80;;;;;;4949175;28;20105;-75
2023/06/06 09:55:21;;;;;;;6.18;2.72;;;23.00;95.30;;;;;;4961295;28;20069;-75
2023/06/06 09:58:01;;;;;;;8.35;3.00;;;23.10;95.40;;;;;;4973031;28;20065;-74
2023/06/06 10:00:50;;;;;;;5.60;3.40;;;23.40;95.10;;;;;;4968826;28;20131;-75
2023/06/06 10:03:22;;;;;;;6.82;3.33;;;23.50;94.30;;;;;;4970436;28;20072;-75
2023/06/06 10:06:11;;;;;;;8.18;3.42;;;23.70;94.40;;;;;;4978762;28;20053;-75
2023/06/06 10:08:48;;;;;;;9.75;3.67;;;23.80;94.30;;;;;;4961853;28;20663;-75
2023/06/06 10:11:49;;;;;;;6.65;3.20;;;24.00;94.10;;;;;;4978028;28;20085;-74
2023/06/06 10:14:52;;;;;;;6.45;3.65;;;24.30;93.40;;;;;;5006613;28;20061;-73
2023/06/06 10:17:44;;;;;;;5.43;3.28;;;24.50;93.10;;;;;;5036952;28;20922;-75
2023/06/06 10:20:30;;;;;;;7.78;4.20;;;24.40;93.10;;;;;;5035790;28;20128;-77
2023/06/06 10:23:05;;;;;;;8.18;3.50;;;24.90;91.50;;;;;;5021212;28;20049;-75
2023/06/06 10:25:46;;;;;;;6.20;3.42;;;25.10;92.20;;;;;;5019913;28;20088;-75
2023/06/06 10:28:38;;;;;;;10.63;3.22;;;24.80;91.60;;;;;;4991622;28;20575;-74
2023/06/06 10:31:52;;;;;;;5.93;2.92;;;25.30;91.00;;;;;;5032970;28;20057;-75
2023/06/06 10:34:49;;;;;;;7.85;3.88;;;25.30;90.40;;;;;;5035296;28;20045;-75
2023/06/06 10:37:41;;;;;;;6.38;3.47;;;25.20;90.30;;;;;;5004864;28;20056;-75
2023/06/06 10:40:16;;;;;;;7.57;3.10;;;25.40;90.10;;;;;;5018674;28;20081;-75
2023/06/06 10:43:20;;;;;;;8.10;3.38;;;25.40;90.10;;;;;;5035641;28;20060;-75
2023/06/06 10:46:26;;;;;;;9.30;3.33;;;25.40;90.20;;;;;;5004634;28;20065;-75
2023/06/06 10:48:58;;;;;;;6.40;3.33;;;25.50;87.50;;;;;;5018269;28;20547;-75
2023/06/06 10:51:41;;;;;;;8.80;3.10;;;25.60;89.30;;;;;;5004053;28;20095;-75
2023/06/06 10:54:28;;;;;;;5.88;3.40;;;25.50;88.90;;;;;;5018126;28;20061;-75
2023/06/06 10:57:02;;;;;;;6.88;3.33;;;25.60;86.50;;;;;;5018537;28;20065;-75
2023/06/06 10:59:41;;;;;;;6.05;3.15;;;25.60;88.40;;;;;;5001730;28;20099;-75
2023/06/06 11:02:35;;;;;;;6.20;3.13;;;25.70;86.80;;;;;;5033648;28;20878;-75
2023/06/06 11:06:00;;;;;;;5.07;2.88;;;25.90;85.80;;;;;;5004461;28;20513;-76
2023/06/06 11:09:01;;;;;;;6.35;2.95;;;25.90;86.80;;;;;;4954326;28;20488;-75
2023/06/06 11:11:49;;;;;;;5.85;2.90;;;25.90;86.00;;;;;;5044451;28;20052;-75
2023/06/06 11:15:12;;;;;;;7.20;3.35;;;25.80;85.60;;;;;;4997907;28;20111;-75
2023/06/06 11:17:53;;;;;;;6.00;3.10;;;25.90;84.90;;;;;;5046124;28;20072;-75
2023/06/06 11:20:40;;;;;;;6.03;3.20;;;25.90;84.80;;;;;;4992527;28;20069;-76
2023/06/06 11:23:19;;;;;;;6.43;3.08;;;26.00;83.40;;;;;;4974847;28;20211;-75
2023/06/06 11:25:49;;;;;;;9.20;3.67;;;26.20;83.30;;;;;;4961079;28;20062;-75
2023/06/06 11:29:00;;;;;;;7.40;3.40;;;26.20;83.90;;;;;;4975469;28;20049;-75
2023/06/06 11:32:09;;;;;;;5.88;3.42;;;26.20;83.20;;;;;;4958816;28;20210;-75
2023/06/06 11:34:42;;;;;;;6.88;3.25;;;26.10;82.00;;;;;;4944954;28;20059;-75
2023/06/06 11:37:21;;;;;;;6.82;3.20;;;26.00;83.20;;;;;;4934253;28;20086;-75
2023/06/06 11:40:23;;;;;;;7.95;3.10;;;25.80;81.80;;;;;;4960666;28;20517;-76
2023/06/06 11:43:03;;;;;;;5.63;2.95;;;26.20;82.70;;;;;;4958822;28;20077;-75
2023/06/06 11:46:08;;;;;;;6.55;2.85;;;26.20;81.90;;;;;;4962172;28;20061;-75
2023/06/06 11:48:59;;;;;;;7.50;3.72;;;26.40;80.80;;;;;;4976544;28;20120;-75
2023/06/06 11:52:00;;;;;;;7.35;2.88;;;26.40;80.90;;;;;;5012737;28;20053;-76
2023/06/06 11:54:30;;;;;;;6.13;2.58;;;26.50;79.70;;;;;;5013576;28;20052;-75
2023/06/06 11:57:08;;;;;;;6.20;2.80;;;26.70;80.20;;;;;;4987173;28;20066;-75
2023/06/06 11:59:39;;;;;;;7.72;3.10;;;26.80;79.90;;;;;;5031120;28;20481;-75
2023/06/06 12:02:16;;;;;;;6.60;2.80;;;26.80;79.30;;;;;;5031088;28;20046;-74
2023/06/06 12:04:47;;;;;;;7.45;3.13;;;26.70;78.60;;;;;;5030080;28;20124;-76
2023/06/06 12:07:30;;;;;;;7.38;2.90;;;26.80;77.90;;;;;;4986249;28;20060;-75
2023/06/06 12:10:33;;;;;;;6.18;2.40;;;26.70;77.80;;;;;;5017219;28;20112;-74
2023/06/06 12:13:04;;;;;;;5.78;2.83;;;26.70;76.20;;;;;;4997590;28;20054;-75
2023/06/06 12:15:50;;;;;;;6.50;2.55;;;26.60;78.20;;;;;;4973381;28;20583;-75
2023/06/06 12:18:33;;;;;;;6.20;2.92;;;26.70;76.90;;;;;;5033585;28;20061;-73
2023/06/06 12:21:06;;;;;;;7.35;2.75;;;26.60;77.60;;;;;;5015093;28;20057;-74
2023/06/06 12:23:43;;;;;;;7.38;2.95;;;26.60;76.80;;;;;;5004446;28;20127;-73
2023/06/06 12:26:19;;;;;;;9.82;3.10;;;26.50;77.80;;;;;;5019598;28;20065;-74
2023/06/06 12:29:07;;;;;;;6.00;3.08;;;26.40;77.40;;;;;;5036697;28;20053;-73
2023/06/06 12:32:31;;;;;;;8.90;3.25;;;26.50;77.30;;;;;;5021633;28;20056;-74
2023/06/06 12:35:06;;;;;;;7.93;3.00;;;26.60;77.20;;;;;;4985349;28;20058;-74
2023/06/06 12:37:46;;;;;;;6.07;2.38;;;26.60;77.90;;;;;;4985642;28;20085;-74
2023/06/06 12:40:34;;;;;;;6.57;3.13;;;26.60;77.30;;;;;;5031179;28;20057;-74
2023/06/06 12:43:07;;;;;;;8.77;3.10;;;26.70;77.00;;;;;;5035835;28;20072;-74
2023/06/06 12:45:48;;;;;;;7.47;3.20;;;26.70;77.50;;;;;;5034446;28;20049;-74
2023/06/06 12:48:22;;;;;;;;;;;26.80;77.20;;;;;;4986298;28;20041;-74
2023/06/06 12:50:51;;;;;;;8.18;2.92;;;26.80;76.50;;;;;;4970567;28;19936;-74
2023/06/06 12:53:24;;;;;;;8.80;3.05;;;26.70;77.40;;;;;;5017728;28;20140;-73
2023/06/06 12:56:02;;;;;;;8.80;3.05;;;26.60;77.40;;;;;;5004272;28;20473;-73
2023/06/06 12:58:34;;;;;;;9.02;2.85;;;26.60;77.60;;;;;;4983771;28;20057;-74
2023/06/06 13:01:19;;;;;;;8.68;3.05;;;26.70;77.40;;;;;;4991750;28;20061;-74
2023/06/06 13:03:52;;;;;;;7.40;2.80;;;26.60;77.40;;;;;;4972252;28;20172;-74
2023/06/06 13:06:24;;;;;;;7.70;3.30;;;26.70;77.40;;;;;;4972845;28;20119;-75
2023/06/06 13:08:58;;;;;;;6.68;2.70;;;26.60;77.30;;;;;;4982395;28;20647;-75
2023/06/06 13:11:37;;;;;;;6.93;2.83;;;26.40;76.70;;;;;;5011816;28;20202;-74
2023/06/06 13:14:32;;;;;;;9.48;3.08;;;26.30;76.60;;;;;;4979613;28;20073;-74
2023/06/06 13:17:03;;;;;;;9.48;3.50;;;26.20;76.60;;;;;;4982308;28;20124;-74
2023/06/06 13:19:29;;;;;;;8.00;3.35;;;26.20;77.40;;;;;;4980601;28;20513;-75
2023/06/06 13:22:01;;;;;;;9.13;3.50;;;26.30;77.20;;;;;;4995890;28;20052;-76
2023/06/06 13:24:27;;;;;;;7.75;2.80;;;26.30;77.10;;;;;;4998106;28;20058;-75
2023/06/06 13:27:10;;;;;;;7.73;3.03;;;26.30;76.70;;;;;;4996217;28;20076;-73
2023/06/06 13:29:46;;;;;;;7.72;3.15;;;26.20;75.90;;;;;;4957519;28;20065;-75
2023/06/06 13:32:31;;;;;;;6.78;2.63;;;26.10;76.00;;;;;;4996779;28;20531;-75